sensor_id;sensor_type;location;lat;lon;timestamp;P1;durP1;ratioP1;P2;durP2;ratioP2
61704;SDS011;47627;48.078;11.522;2023-09-08T06:12:50;11.30;;;10.20;;
61704;SDS011;47627;48.078;11.522;2023-09-08T06:15:16;13.82;;;10.05;;
61704;SDS011;47627;48.078;11.522;2023-09-08T06:17:42;10.57;;;9.55;;
61704;SDS011;47627;48.078;11.522;2023-09-08T06:20:08;10.55;;;8.95;;
61704;SDS011;47627;48.078;11.522;2023-09-08T06:22:34;12.32;;;8.95;;
61704;SDS011;47627;48.078;11.522;2023-09-08T06:24:59;8.43;;;7.50;;
61704;SDS011;47627;48.078;11.522;2023-09-08T06:27:25;11.07;;;7.68;;
61704;SDS011;47627;48.078;11.522;2023-09-08T06:29:51;9.27;;;7.15;;
61704;SDS011;47627;48.078;11.522;2023-09-08T06:32:16;8.48;;;7.22;;
61704;SDS011;47627;48.078;11.522;2023-09-08T06:34:44;8.90;;;6.22;;
61704;SDS011;47627;48.078;11.522;2023-09-08T06:37:10;8.95;;;6.70;;
61704;SDS011;47627;48.078;11.522;2023-09-08T06:39:35;6.82;;;6.13;;
61704;SDS011;47627;48.078;11.522;2023-09-08T06:42:02;6.53;;;5.82;;
61704;SDS011;47627;48.078;11.522;2023-09-08T06:44:27;6.95;;;6.07;;
61704;SDS011;47627;48.078;11.522;2023-09-08T06:46:52;6.88;;;6.28;;
61704;SDS011;47627;48.078;11.522;2023-09-08T06:49:18;6.80;;;5.40;;
61704;SDS011;47627;48.078;11.522;2023-09-08T07:07:01;7.60;;;4.65;;
61704;SDS011;47627;48.078;11.522;2023-09-08T07:09:33;6.07;;;5.40;;
61704;SDS011;47627;48.078;11.522;2023-09-08T07:11:59;5.45;;;4.95;;
61704;SDS011;47627;48.078;11.522;2023-09-08T10:53:27;5.93;;;5.32;;
61704;SDS011;47627;48.078;11.522;2023-09-08T10:55:50;6.25;;;5.57;;
61704;SDS011;47627;48.078;11.522;2023-09-08T10:58:31;6.03;;;5.43;;
61704;SDS011;47627;48.078;11.522;2023-09-08T11:01:02;6.10;;;5.60;;
61704;SDS011;47627;48.078;11.522;2023-09-08T11:06:06;6.55;;;5.53;;
61704;SDS011;47627;48.078;11.522;2023-09-08T11:08:32;6.25;;;5.65;;
61704;SDS011;47627;48.078;11.522;2023-09-08T11:10:58;6.97;;;6.28;;
61704;SDS011;47627;48.078;11.522;2023-09-08T11:13:23;7.30;;;6.05;;
61704;SDS011;47627;48.078;11.522;2023-09-08T11:15:52;7.18;;;5.60;;
61704;SDS011;47627;48.078;11.522;2023-09-08T11:18:17;8.27;;;5.60;;
61704;SDS011;47627;48.078;11.522;2023-09-08T11:20:42;6.60;;;5.90;;
61704;SDS011;47627;48.078;11.522;2023-09-08T11:23:09;7.50;;;5.60;;
61704;SDS011;47627;48.078;11.522;2023-09-08T11:25:35;8.05;;;5.88;;
61704;SDS011;47627;48.078;11.522;2023-09-08T11:28:00;6.50;;;5.72;;
61704;SDS011;47627;48.078;11.522;2023-09-08T11:30:26;7.78;;;5.70;;
61704;SDS011;47627;48.078;11.522;2023-09-08T11:32:51;8.68;;;5.72;;
61704;SDS011;47627;48.078;11.522;2023-09-08T11:35:16;5.97;;;5.47;;
61704;SDS011;47627;48.078;11.522;2023-09-08T11:37:45;7.68;;;5.38;;
61704;SDS011;47627;48.078;11.522;2023-09-08T11:40:11;8.35;;;5.35;;
61704;SDS011;47627;48.078;11.522;2023-09-08T11:42:38;7.72;;;5.65;;
61704;SDS011;47627;48.078;11.522;2023-09-08T11:45:03;5.95;;;5.45;;
61704;SDS011;47627;48.078;11.522;2023-09-08T11:47:29;5.93;;;5.43;;
61704;SDS011;47627;48.078;11.522;2023-09-08T11:49:54;7.18;;;5.35;;
61704;SDS011;47627;48.078;11.522;2023-09-08T11:52:22;5.57;;;5.07;;
61704;SDS011;47627;48.078;11.522;2023-09-08T11:54:47;5.80;;;5.30;;
61704;SDS011;47627;48.078;11.522;2023-09-08T11:57:13;8.60;;;6.00;;
61704;SDS011;47627;48.078;11.522;2023-09-08T11:59:38;6.45;;;5.30;;
61704;SDS011;47627;48.078;11.522;2023-09-08T12:02:04;5.88;;;5.22;;
61704;SDS011;47627;48.078;11.522;2023-09-08T12:04:29;7.20;;;5.72;;
61704;SDS011;47627;48.078;11.522;2023-09-08T12:06:54;5.70;;;5.20;;
61704;SDS011;47627;48.078;11.522;2023-09-08T12:09:22;7.25;;;5.82;;
61704;SDS011;47627;48.078;11.522;2023-09-08T12:11:47;8.50;;;5.85;;
61704;SDS011;47627;48.078;11.522;2023-09-08T12:14:13;7.07;;;5.07;;
61704;SDS011;47627;48.078;11.522;2023-09-08T12:16:39;6.10;;;5.50;;
61704;SDS011;47627;48.078;11.522;2023-09-08T12:19:04;6.07;;;5.07;;
61704;SDS011;47627;48.078;11.522;2023-09-08T12:21:30;5.88;;;5.28;;
61704;SDS011;47627;48.078;11.522;2023-09-08T12:23:57;5.63;;;4.90;;
61704;SDS011;47627;48.078;11.522;2023-09-08T12:26:25;7.15;;;5.72;;
61704;SDS011;47627;48.078;11.522;2023-09-08T12:28:51;6.22;;;5.55;;
61704;SDS011;47627;48.078;11.522;2023-09-08T12:31:16;6.60;;;5.60;;
61704;SDS011;47627;48.078;11.522;2023-09-08T12:33:43;6.50;;;5.78;;
61704;SDS011;47627;48.078;11.522;2023-09-08T12:38:40;6.57;;;5.32;;
61704;SDS011;47627;48.078;11.522;2023-09-08T12:41:05;6.03;;;5.43;;
61704;SDS011;47627;48.078;11.522;2023-09-08T12:43:30;6.30;;;5.30;;
61704;SDS011;47627;48.078;11.522;2023-09-08T12:45:56;6.57;;;5.95;;
61704;SDS011;47627;48.078;11.522;2023-09-08T12:48:21;7.50;;;5.50;;
61704;SDS011;47627;48.078;11.522;2023-09-08T12:50:46;5.90;;;5.30;;
61704;SDS011;47627;48.078;11.522;2023-09-08T12:53:13;5.85;;;5.35;;
61704;SDS011;47627;48.078;11.522;2023-09-08T12:55:38;8.40;;;5.30;;
61704;SDS011;47627;48.078;11.522;2023-09-08T12:58:03;6.87;;;5.20;;
61704;SDS011;47627;48.078;11.522;2023-09-08T13:00:29;5.88;;;5.28;;
61704;SDS011;47627;48.078;11.522;2023-09-08T13:02:54;5.85;;;5.25;;
61704;SDS011;47627;48.078;11.522;2023-09-08T13:05:19;8.57;;;5.40;;
61704;SDS011;47627;48.078;11.522;2023-09-08T13:07:45;6.45;;;5.13;;
61704;SDS011;47627;48.078;11.522;2023-09-08T13:10:10;8.03;;;4.53;;
61704;SDS011;47627;48.078;11.522;2023-09-08T13:12:35;6.97;;;4.70;;
61704;SDS011;47627;48.078;11.522;2023-09-08T13:15:00;5.10;;;4.60;;
61704;SDS011;47627;48.078;11.522;2023-09-08T13:17:26;5.57;;;4.70;;
61704;SDS011;47627;48.078;11.522;2023-09-08T13:19:51;6.20;;;4.93;;
61704;SDS011;47627;48.078;11.522;2023-09-08T13:22:18;5.28;;;4.70;;
61704;SDS011;47627;48.078;11.522;2023-09-08T13:24:43;5.18;;;4.68;;
61704;SDS011;47627;48.078;11.522;2023-09-08T13:27:08;6.13;;;4.70;;
61704;SDS011;47627;48.078;11.522;2023-09-08T13:29:33;6.70;;;4.20;;
61704;SDS011;47627;48.078;11.522;2023-09-08T13:31:59;4.75;;;4.28;;
61704;SDS011;47627;48.078;11.522;2023-09-08T13:34:24;6.63;;;4.82;;
61704;SDS011;47627;48.078;11.522;2023-09-08T13:36:49;5.38;;;4.85;;
61704;SDS011;47627;48.078;11.522;2023-09-08T13:39:15;5.40;;;4.57;;
61704;SDS011;47627;48.078;11.522;2023-09-08T13:44:09;4.72;;;4.32;;
61704;SDS011;47627;48.078;11.522;2023-09-08T13:46:34;4.90;;;4.27;;
61704;SDS011;47627;48.078;11.522;2023-09-08T13:48:59;4.70;;;4.30;;
61704;SDS011;47627;48.078;11.522;2023-09-08T13:51:25;4.55;;;4.15;;
61704;SDS011;47627;48.078;11.522;2023-09-08T13:53:50;4.83;;;4.43;;
61704;SDS011;47627;48.078;11.522;2023-09-08T13:56:15;5.73;;;4.73;;
61704;SDS011;47627;48.078;11.522;2023-09-08T13:58:40;7.03;;;4.53;;
61704;SDS011;47627;48.078;11.522;2023-09-08T14:01:10;5.18;;;4.50;;
61704;SDS011;47627;48.078;11.522;2023-09-08T14:03:35;4.95;;;4.55;;
61704;SDS011;47627;48.078;11.522;2023-09-08T14:06:00;4.60;;;4.20;;
61704;SDS011;47627;48.078;11.522;2023-09-08T14:08:25;6.40;;;4.68;;
61704;SDS011;47627;48.078;11.522;2023-09-08T14:10:52;5.70;;;4.13;;
61704;SDS011;47627;48.078;11.522;2023-09-08T14:13:18;6.00;;;3.95;;
61704;SDS011;47627;48.078;11.522;2023-09-08T14:15:43;5.03;;;4.17;;
61704;SDS011;47627;48.078;11.522;2023-09-08T14:18:08;4.22;;;3.83;;
61704;SDS011;47627;48.078;11.522;2023-09-08T14:20:35;4.47;;;4.07;;
61704;SDS011;47627;48.078;11.522;2023-09-08T14:23:00;4.50;;;4.10;;
61704;SDS011;47627;48.078;11.522;2023-09-08T14:25:25;6.82;;;3.85;;
61704;SDS011;47627;48.078;11.522;2023-09-08T14:27:50;4.57;;;3.90;;
61704;SDS011;47627;48.078;11.522;2023-09-08T14:30:16;4.50;;;4.10;;
61704;SDS011;47627;48.078;11.522;2023-09-08T14:32:41;4.82;;;4.18;;
61704;SDS011;47627;48.078;11.522;2023-09-08T14:35:06;5.40;;;4.40;;
61704;SDS011;47627;48.078;11.522;2023-09-08T14:37:32;6.20;;;4.63;;
61704;SDS011;47627;48.078;11.522;2023-09-08T14:39:58;5.15;;;4.38;;
61704;SDS011;47627;48.078;11.522;2023-09-08T14:42:23;5.00;;;3.93;;
61704;SDS011;47627;48.078;11.522;2023-09-08T14:44:48;5.25;;;4.22;;
61704;SDS011;47627;48.078;11.522;2023-09-08T14:47:16;4.78;;;4.30;;
61704;SDS011;47627;48.078;11.522;2023-09-08T14:49:41;6.03;;;4.30;;
61704;SDS011;47627;48.078;11.522;2023-09-08T14:52:07;4.78;;;4.32;;
61704;SDS011;47627;48.078;11.522;2023-09-08T14:54:33;4.88;;;3.67;;
61704;SDS011;47627;48.078;11.522;2023-09-08T14:56:58;4.43;;;4.03;;
61704;SDS011;47627;48.078;11.522;2023-09-08T14:59:24;5.82;;;4.40;;
61704;SDS011;47627;48.078;11.522;2023-09-08T15:01:49;5.47;;;4.50;;
61704;SDS011;47627;48.078;11.522;2023-09-08T15:04:16;5.18;;;4.68;;
61704;SDS011;47627;48.078;11.522;2023-09-08T15:06:41;10.05;;;4.88;;
61704;SDS011;47627;48.078;11.522;2023-09-08T15:09:06;8.77;;;5.20;;
61704;SDS011;47627;48.078;11.522;2023-09-08T15:11:31;5.60;;;4.20;;
61704;SDS011;47627;48.078;11.522;2023-09-08T15:13:57;6.40;;;4.73;;
61704;SDS011;47627;48.078;11.522;2023-09-08T15:16:22;5.20;;;4.70;;
61704;SDS011;47627;48.078;11.522;2023-09-08T15:18:47;6.40;;;4.83;;
61704;SDS011;47627;48.078;11.522;2023-09-08T15:21:12;4.75;;;4.35;;
61704;SDS011;47627;48.078;11.522;2023-09-08T15:23:38;5.17;;;4.57;;
61704;SDS011;47627;48.078;11.522;2023-09-08T15:26:03;8.40;;;4.57;;
61704;SDS011;47627;48.078;11.522;2023-09-08T15:28:28;5.97;;;4.45;;
61704;SDS011;47627;48.078;11.522;2023-09-08T15:30:54;6.03;;;4.70;;
61704;SDS011;47627;48.078;11.522;2023-09-08T15:33:20;6.22;;;4.53;;
61704;SDS011;47627;48.078;11.522;2023-09-08T15:35:47;5.78;;;4.47;;
61704;SDS011;47627;48.078;11.522;2023-09-08T15:38:14;6.00;;;4.47;;
61704;SDS011;47627;48.078;11.522;2023-09-08T15:41:21;6.07;;;4.53;;
61704;SDS011;47627;48.078;11.522;2023-09-08T15:43:28;5.03;;;4.53;;
61704;SDS011;47627;48.078;11.522;2023-09-08T15:45:53;6.57;;;4.25;;
